sensor_id;sensor_type;location;lat;lon;timestamp;P1;durP1;ratioP1;P2;durP2;ratioP2
70406;SDS011;57821;52.202;0.154;2024-02-26T00:00:46;13.13;;;2.60;;
70406;SDS011;57821;52.202;0.154;2024-02-26T00:03:13;8.77;;;2.42;;
70406;SDS011;57821;52.202;0.154;2024-02-26T00:05:40;8.38;;;2.83;;
70406;SDS011;57821;52.202;0.154;2024-02-26T00:08:07;8.23;;;2.40;;
70406;SDS011;57821;52.202;0.154;2024-02-26T00:10:33;6.65;;;2.38;;
70406;SDS011;57821;52.202;0.154;2024-02-26T00:13:00;12.38;;;3.35;;
70406;SDS011;57821;52.202;0.154;2024-02-26T00:15:27;12.93;;;3.08;;
70406;SDS011;57821;52.202;0.154;2024-02-26T00:17:54;8.50;;;2.13;;
70406;SDS011;57821;52.202;0.154;2024-02-26T00:20:21;12.57;;;2.92;;
70406;SDS011;57821;52.202;0.154;2024-02-26T00:22:47;11.20;;;2.35;;
70406;SDS011;57821;52.202;0.154;2024-02-26T00:25:14;13.75;;;2.28;;
70406;SDS011;57821;52.202;0.154;2024-02-26T00:27:41;12.88;;;2.40;;
70406;SDS011;57821;52.202;0.154;2024-02-26T00:30:10;9.75;;;2.35;;
70406;SDS011;57821;52.202;0.154;2024-02-26T00:32:38;11.20;;;2.42;;
70406;SDS011;57821;52.202;0.154;2024-02-26T00:35:05;7.07;;;2.22;;
70406;SDS011;57821;52.202;0.154;2024-02-26T00:37:32;12.20;;;2.22;;
70406;SDS011;57821;52.202;0.154;2024-02-26T00:39:59;10.63;;;2.15;;
70406;SDS011;57821;52.202;0.154;2024-02-26T00:42:26;7.68;;;2.25;;
70406;SDS011;57821;52.202;0.154;2024-02-26T00:44:52;11.23;;;2.47;;
70406;SDS011;57821;52.202;0.154;2024-02-26T00:47:19;10.50;;;1.98;;
70406;SDS011;57821;52.202;0.154;2024-02-26T00:49:46;6.13;;;1.98;;
70406;SDS011;57821;52.202;0.154;2024-02-26T00:52:13;9.02;;;2.38;;
70406;SDS011;57821;52.202;0.154;2024-02-26T00:54:39;5.97;;;1.80;;
70406;SDS011;57821;52.202;0.154;2024-02-26T00:57:06;7.63;;;2.00;;
70406;SDS011;57821;52.202;0.154;2024-02-26T00:59:33;7.03;;;1.67;;
70406;SDS011;57821;52.202;0.154;2024-02-26T01:01:59;10.23;;;2.58;;
70406;SDS011;57821;52.202;0.154;2024-02-26T01:04:28;9.23;;;2.20;;
70406;SDS011;57821;52.202;0.154;2024-02-26T01:06:55;7.97;;;2.30;;
70406;SDS011;57821;52.202;0.154;2024-02-26T01:09:22;9.43;;;2.05;;
70406;SDS011;57821;52.202;0.154;2024-02-26T01:11:49;6.28;;;2.30;;
70406;SDS011;57821;52.202;0.154;2024-02-26T01:14:15;12.52;;;2.72;;
70406;SDS011;57821;52.202;0.154;2024-02-26T01:16:42;7.32;;;2.08;;
70406;SDS011;57821;52.202;0.154;2024-02-26T01:19:09;5.13;;;2.00;;
70406;SDS011;57821;52.202;0.154;2024-02-26T01:21:36;9.23;;;2.13;;
70406;SDS011;57821;52.202;0.154;2024-02-26T01:24:02;16.92;;;3.55;;
70406;SDS011;57821;52.202;0.154;2024-02-26T01:26:30;8.93;;;2.15;;
70406;SDS011;57821;52.202;0.154;2024-02-26T01:28:57;7.85;;;2.45;;
70406;SDS011;57821;52.202;0.154;2024-02-26T01:31:23;11.02;;;2.55;;
70406;SDS011;57821;52.202;0.154;2024-02-26T01:33:50;9.48;;;2.53;;
70406;SDS011;57821;52.202;0.154;2024-02-26T01:36:17;8.57;;;2.22;;
70406;SDS011;57821;52.202;0.154;2024-02-26T01:38:44;9.48;;;2.60;;
70406;SDS011;57821;52.202;0.154;2024-02-26T01:41:11;11.25;;;2.55;;
70406;SDS011;57821;52.202;0.154;2024-02-26T01:43:39;9.18;;;2.50;;
70406;SDS011;57821;52.202;0.154;2024-02-26T01:46:06;8.18;;;2.47;;
70406;SDS011;57821;52.202;0.154;2024-02-26T01:48:40;11.48;;;2.30;;
70406;SDS011;57821;52.202;0.154;2024-02-26T01:51:09;11.43;;;2.72;;
70406;SDS011;57821;52.202;0.154;2024-02-26T01:53:38;9.38;;;2.22;;
70406;SDS011;57821;52.202;0.154;2024-02-26T01:56:05;9.63;;;2.35;;
70406;SDS011;57821;52.202;0.154;2024-02-26T01:58:31;9.98;;;2.50;;
70406;SDS011;57821;52.202;0.154;2024-02-26T02:00:59;9.73;;;2.55;;
70406;SDS011;57821;52.202;0.154;2024-02-26T02:03:29;9.23;;;2.30;;
70406;SDS011;57821;52.202;0.154;2024-02-26T02:05:57;8.20;;;2.33;;
70406;SDS011;57821;52.202;0.154;2024-02-26T02:08:24;9.50;;;2.70;;
70406;SDS011;57821;52.202;0.154;2024-02-26T02:10:51;9.23;;;2.30;;
70406;SDS011;57821;52.202;0.154;2024-02-26T02:13:18;7.25;;;2.53;;
70406;SDS011;57821;52.202;0.154;2024-02-26T02:15:44;13.15;;;2.20;;
70406;SDS011;57821;52.202;0.154;2024-02-26T02:18:11;11.00;;;2.42;;
70406;SDS011;57821;52.202;0.154;2024-02-26T02:20:38;7.95;;;2.40;;
70406;SDS011;57821;52.202;0.154;2024-02-26T02:23:05;10.70;;;2.35;;
70406;SDS011;57821;52.202;0.154;2024-02-26T02:25:31;6.60;;;1.83;;
70406;SDS011;57821;52.202;0.154;2024-02-26T02:27:58;6.43;;;2.25;;
70406;SDS011;57821;52.202;0.154;2024-02-26T02:30:26;8.15;;;2.08;;
70406;SDS011;57821;52.202;0.154;2024-02-26T02:32:57;10.02;;;2.75;;
70406;SDS011;57821;52.202;0.154;2024-02-26T02:35:25;9.52;;;2.20;;
70406;SDS011;57821;52.202;0.154;2024-02-26T02:37:52;5.80;;;1.67;;
70406;SDS011;57821;52.202;0.154;2024-02-26T02:40:19;10.27;;;2.00;;
70406;SDS011;57821;52.202;0.154;2024-02-26T02:42:46;6.05;;;1.48;;
70406;SDS011;57821;52.202;0.154;2024-02-26T02:45:13;13.43;;;2.63;;
70406;SDS011;57821;52.202;0.154;2024-02-26T02:47:39;7.95;;;1.52;;
70406;SDS011;57821;52.202;0.154;2024-02-26T02:50:06;9.25;;;2.17;;
70406;SDS011;57821;52.202;0.154;2024-02-26T02:52:33;8.35;;;1.60;;
70406;SDS011;57821;52.202;0.154;2024-02-26T02:55:00;6.20;;;1.65;;
70406;SDS011;57821;52.202;0.154;2024-02-26T02:57:28;8.52;;;2.05;;
70406;SDS011;57821;52.202;0.154;2024-02-26T02:59:57;8.32;;;2.40;;
70406;SDS011;57821;52.202;0.154;2024-02-26T03:02:23;8.85;;;2.38;;
70406;SDS011;57821;52.202;0.154;2024-02-26T03:04:53;8.23;;;2.10;;
70406;SDS011;57821;52.202;0.154;2024-02-26T03:07:19;8.15;;;2.13;;
70406;SDS011;57821;52.202;0.154;2024-02-26T03:09:47;9.73;;;2.22;;
70406;SDS011;57821;52.202;0.154;2024-02-26T03:12:13;8.30;;;1.75;;
70406;SDS011;57821;52.202;0.154;2024-02-26T03:14:40;6.55;;;1.33;;
70406;SDS011;57821;52.202;0.154;2024-02-26T03:17:07;5.55;;;1.27;;
70406;SDS011;57821;52.202;0.154;2024-02-26T03:19:34;7.47;;;1.67;;
70406;SDS011;57821;52.202;0.154;2024-02-26T03:22:01;6.55;;;1.63;;
70406;SDS011;57821;52.202;0.154;2024-02-26T03:24:28;8.70;;;1.88;;
70406;SDS011;57821;52.202;0.154;2024-02-26T03:26:55;5.03;;;1.30;;
70406;SDS011;57821;52.202;0.154;2024-02-26T03:29:22;5.32;;;1.48;;
70406;SDS011;57821;52.202;0.154;2024-02-26T03:31:48;13.07;;;1.70;;
70406;SDS011;57821;52.202;0.154;2024-02-26T03:34:15;13.48;;;2.17;;
70406;SDS011;57821;52.202;0.154;2024-02-26T03:36:44;5.28;;;1.58;;
70406;SDS011;57821;52.202;0.154;2024-02-26T03:39:10;7.22;;;1.60;;
70406;SDS011;57821;52.202;0.154;2024-02-26T03:41:37;5.63;;;1.63;;
70406;SDS011;57821;52.202;0.154;2024-02-26T03:44:04;7.78;;;1.85;;
70406;SDS011;57821;52.202;0.154;2024-02-26T03:46:31;6.93;;;1.42;;
70406;SDS011;57821;52.202;0.154;2024-02-26T03:48:57;7.20;;;1.70;;
70406;SDS011;57821;52.202;0.154;2024-02-26T03:51:24;8.20;;;1.50;;
70406;SDS011;57821;52.202;0.154;2024-02-26T03:53:51;11.00;;;2.40;;
70406;SDS011;57821;52.202;0.154;2024-02-26T03:56:18;9.98;;;1.67;;
70406;SDS011;57821;52.202;0.154;2024-02-26T03:58:45;8.50;;;1.45;;
70406;SDS011;57821;52.202;0.154;2024-02-26T04:01:11;7.90;;;1.30;;
70406;SDS011;57821;52.202;0.154;2024-02-26T04:03:38;6.47;;;1.60;;
70406;SDS011;57821;52.202;0.154;2024-02-26T04:06:08;5.50;;;1.20;;
70406;SDS011;57821;52.202;0.154;2024-02-26T04:08:37;7.65;;;1.25;;
70406;SDS011;57821;52.202;0.154;2024-02-26T04:11:04;9.63;;;1.95;;
70406;SDS011;57821;52.202;0.154;2024-02-26T04:13:38;7.85;;;1.90;;
70406;SDS011;57821;52.202;0.154;2024-02-26T04:16:05;8.02;;;1.08;;
70406;SDS011;57821;52.202;0.154;2024-02-26T04:18:32;7.88;;;1.00;;
70406;SDS011;57821;52.202;0.154;2024-02-26T04:20:59;6.30;;;0.88;;
70406;SDS011;57821;52.202;0.154;2024-02-26T04:23:26;6.38;;;1.75;;
70406;SDS011;57821;52.202;0.154;2024-02-26T04:25:53;6.95;;;1.00;;
70406;SDS011;57821;52.202;0.154;2024-02-26T04:28:19;5.07;;;1.77;;
70406;SDS011;57821;52.202;0.154;2024-02-26T04:30:52;8.45;;;1.13;;
70406;SDS011;57821;52.202;0.154;2024-02-26T04:33:19;5.53;;;0.77;;
70406;SDS011;57821;52.202;0.154;2024-02-26T04:35:46;7.15;;;0.95;;
70406;SDS011;57821;52.202;0.154;2024-02-26T04:38:12;5.93;;;1.00;;
70406;SDS011;57821;52.202;0.154;2024-02-26T04:40:39;6.10;;;0.95;;
70406;SDS011;57821;52.202;0.154;2024-02-26T04:43:06;4.10;;;0.65;;
70406;SDS011;57821;52.202;0.154;2024-02-26T04:45:32;4.43;;;0.95;;
70406;SDS011;57821;52.202;0.154;2024-02-26T04:47:59;6.90;;;0.90;;
70406;SDS011;57821;52.202;0.154;2024-02-26T04:50:26;6.18;;;1.00;;
70406;SDS011;57821;52.202;0.154;2024-02-26T04:52:53;5.45;;;0.93;;
70406;SDS011;57821;52.202;0.154;2024-02-26T04:55:20;5.30;;;0.70;;
70406;SDS011;57821;52.202;0.154;2024-02-26T04:57:46;7.47;;;1.20;;
70406;SDS011;57821;52.202;0.154;2024-02-26T05:00:13;5.32;;;1.10;;
70406;SDS011;57821;52.202;0.154;2024-02-26T05:02:40;4.82;;;0.98;;
70406;SDS011;57821;52.202;0.154;2024-02-26T05:05:07;4.53;;;0.93;;
70406;SDS011;57821;52.202;0.154;2024-02-26T05:07:39;5.78;;;0.90;;
70406;SDS011;57821;52.202;0.154;2024-02-26T05:10:07;4.60;;;1.10;;
70406;SDS011;57821;52.202;0.154;2024-02-26T05:12:34;6.95;;;1.10;;
70406;SDS011;57821;52.202;0.154;2024-02-26T05:15:02;4.22;;;0.82;;
70406;SDS011;57821;52.202;0.154;2024-02-26T05:17:30;4.78;;;0.90;;
70406;SDS011;57821;52.202;0.154;2024-02-26T05:19:56;6.10;;;1.15;;
70406;SDS011;57821;52.202;0.154;2024-02-26T05:22:23;6.30;;;1.00;;
70406;SDS011;57821;52.202;0.154;2024-02-26T05:24:50;7.20;;;1.13;;
70406;SDS011;57821;52.202;0.154;2024-02-26T05:27:17;6.40;;;1.40;;
70406;SDS011;57821;52.202;0.154;2024-02-26T05:29:44;7.72;;;0.95;;
70406;SDS011;57821;52.202;0.154;2024-02-26T05:32:11;6.03;;;1.60;;
70406;SDS011;57821;52.202;0.154;2024-02-26T05:34:38;8.00;;;1.50;;
70406;SDS011;57821;52.202;0.154;2024-02-26T05:37:06;5.05;;;1.50;;
70406;SDS011;57821;52.202;0.154;2024-02-26T05:39:34;9.23;;;2.17;;
70406;SDS011;57821;52.202;0.154;2024-02-26T05:42:00;7.50;;;1.42;;
70406;SDS011;57821;52.202;0.154;2024-02-26T05:44:27;8.80;;;1.83;;
70406;SDS011;57821;52.202;0.154;2024-02-26T05:46:54;7.97;;;1.50;;
70406;SDS011;57821;52.202;0.154;2024-02-26T05:49:22;5.85;;;1.33;;
70406;SDS011;57821;52.202;0.154;2024-02-26T05:51:49;11.20;;;2.28;;
70406;SDS011;57821;52.202;0.154;2024-02-26T05:54:16;7.82;;;1.48;;
70406;SDS011;57821;52.202;0.154;2024-02-26T05:56:42;9.35;;;1.48;;
70406;SDS011;57821;52.202;0.154;2024-02-26T05:59:09;12.27;;;1.55;;
70406;SDS011;57821;52.202;0.154;2024-02-26T06:01:36;9.15;;;1.63;;
70406;SDS011;57821;52.202;0.154;2024-02-26T06:04:03;6.30;;;1.20;;
70406;SDS011;57821;52.202;0.154;2024-02-26T06:06:29;9.27;;;1.40;;
70406;SDS011;57821;52.202;0.154;2024-02-26T06:08:56;9.90;;;2.58;;
70406;SDS011;57821;52.202;0.154;2024-02-26T06:11:23;8.70;;;1.77;;
70406;SDS011;57821;52.202;0.154;2024-02-26T06:13:50;8.48;;;1.30;;
70406;SDS011;57821;52.202;0.154;2024-02-26T06:16:17;4.82;;;1.23;;
70406;SDS011;57821;52.202;0.154;2024-02-26T06:18:43;8.10;;;1.10;;
70406;SDS011;57821;52.202;0.154;2024-02-26T06:21:10;7.55;;;1.10;;
70406;SDS011;57821;52.202;0.154;2024-02-26T06:23:38;7.93;;;1.00;;
70406;SDS011;57821;52.202;0.154;2024-02-26T06:26:06;6.13;;;1.00;;
70406;SDS011;57821;52.202;0.154;2024-02-26T06:28:33;6.32;;;0.90;;
70406;SDS011;57821;52.202;0.154;2024-02-26T06:31:01;6.35;;;0.90;;
70406;SDS011;57821;52.202;0.154;2024-02-26T06:33:29;4.72;;;1.05;;
70406;SDS011;57821;52.202;0.154;2024-02-26T06:35:56;9.98;;;1.13;;
70406;SDS011;57821;52.202;0.154;2024-02-26T06:38:22;6.88;;;1.15;;
70406;SDS011;57821;52.202;0.154;2024-02-26T06:40:49;5.60;;;1.13;;
70406;SDS011;57821;52.202;0.154;2024-02-26T06:43:16;9.52;;;1.40;;
70406;SDS011;57821;52.202;0.154;2024-02-26T06:45:43;9.07;;;1.00;;
70406;SDS011;57821;52.202;0.154;2024-02-26T06:48:09;9.32;;;2.33;;
70406;SDS011;57821;52.202;0.154;2024-02-26T06:50:36;5.95;;;1.10;;
70406;SDS011;57821;52.202;0.154;2024-02-26T06:53:03;9.25;;;1.65;;
70406;SDS011;57821;52.202;0.154;2024-02-26T06:55:30;6.05;;;1.20;;
70406;SDS011;57821;52.202;0.154;2024-02-26T06:57:57;8.43;;;1.40;;
70406;SDS011;57821;52.202;0.154;2024-02-26T07:00:23;5.72;;;1.10;;
70406;SDS011;57821;52.202;0.154;2024-02-26T07:02:50;7.18;;;1.42;;
70406;SDS011;57821;52.202;0.154;2024-02-26T07:05:17;10.70;;;1.17;;
70406;SDS011;57821;52.202;0.154;2024-02-26T07:07:44;4.78;;;1.00;;
70406;SDS011;57821;52.202;0.154;2024-02-26T07:10:11;6.78;;;0.70;;
70406;SDS011;57821;52.202;0.154;2024-02-26T07:12:38;6.25;;;1.17;;
70406;SDS011;57821;52.202;0.154;2024-02-26T07:15:05;5.57;;;0.77;;
70406;SDS011;57821;52.202;0.154;2024-02-26T07:17:34;6.72;;;1.35;;
70406;SDS011;57821;52.202;0.154;2024-02-26T07:20:01;6.78;;;0.90;;
70406;SDS011;57821;52.202;0.154;2024-02-26T07:22:35;5.20;;;1.33;;
70406;SDS011;57821;52.202;0.154;2024-02-26T07:25:01;5.53;;;0.80;;
70406;SDS011;57821;52.202;0.154;2024-02-26T07:27:28;6.95;;;1.17;;
70406;SDS011;57821;52.202;0.154;2024-02-26T07:29:55;6.22;;;1.02;;
70406;SDS011;57821;52.202;0.154;2024-02-26T07:32:22;5.45;;;1.05;;
70406;SDS011;57821;52.202;0.154;2024-02-26T07:34:49;9.10;;;1.02;;
70406;SDS011;57821;52.202;0.154;2024-02-26T07:37:16;7.68;;;1.13;;
70406;SDS011;57821;52.202;0.154;2024-02-26T07:39:43;10.10;;;1.30;;
70406;SDS011;57821;52.202;0.154;2024-02-26T07:42:09;7.38;;;1.00;;
70406;SDS011;57821;52.202;0.154;2024-02-26T07:44:36;6.63;;;1.00;;
70406;SDS011;57821;52.202;0.154;2024-02-26T07:47:03;5.15;;;0.75;;
70406;SDS011;57821;52.202;0.154;2024-02-26T07:49:30;9.13;;;1.33;;
70406;SDS011;57821;52.202;0.154;2024-02-26T07:51:58;6.78;;;0.77;;
70406;SDS011;57821;52.202;0.154;2024-02-26T07:54:24;9.40;;;2.47;;
70406;SDS011;57821;52.202;0.154;2024-02-26T07:56:51;5.57;;;1.02;;
70406;SDS011;57821;52.202;0.154;2024-02-26T07:59:18;4.50;;;0.90;;
70406;SDS011;57821;52.202;0.154;2024-02-26T08:01:49;6.10;;;0.95;;
70406;SDS011;57821;52.202;0.154;2024-02-26T08:04:24;8.70;;;1.58;;
70406;SDS011;57821;52.202;0.154;2024-02-26T08:06:53;7.75;;;0.88;;
70406;SDS011;57821;52.202;0.154;2024-02-26T08:09:20;9.20;;;1.17;;
70406;SDS011;57821;52.202;0.154;2024-02-26T08:11:47;7.88;;;1.10;;
70406;SDS011;57821;52.202;0.154;2024-02-26T08:14:13;6.32;;;1.15;;
70406;SDS011;57821;52.202;0.154;2024-02-26T08:16:40;3.80;;;0.82;;
70406;SDS011;57821;52.202;0.154;2024-02-26T08:19:07;6.82;;;1.08;;
70406;SDS011;57821;52.202;0.154;2024-02-26T08:21:33;3.60;;;0.70;;
70406;SDS011;57821;52.202;0.154;2024-02-26T08:24:00;8.43;;;1.17;;
70406;SDS011;57821;52.202;0.154;2024-02-26T08:26:27;8.68;;;1.10;;
70406;SDS011;57821;52.202;0.154;2024-02-26T08:28:54;7.82;;;1.00;;
70406;SDS011;57821;52.202;0.154;2024-02-26T08:31:22;5.45;;;1.00;;
70406;SDS011;57821;52.202;0.154;2024-02-26T08:33:49;8.15;;;1.00;;
70406;SDS011;57821;52.202;0.154;2024-02-26T08:36:17;5.18;;;0.88;;
70406;SDS011;57821;52.202;0.154;2024-02-26T08:38:44;8.57;;;1.10;;
70406;SDS011;57821;52.202;0.154;2024-02-26T08:41:10;3.83;;;0.68;;
70406;SDS011;57821;52.202;0.154;2024-02-26T08:43:37;5.15;;;0.80;;
70406;SDS011;57821;52.202;0.154;2024-02-26T08:46:04;12.63;;;1.10;;
70406;SDS011;57821;52.202;0.154;2024-02-26T08:48:30;8.73;;;1.30;;
70406;SDS011;57821;52.202;0.154;2024-02-26T08:50:57;5.78;;;1.00;;
70406;SDS011;57821;52.202;0.154;2024-02-26T08:53:24;5.97;;;1.20;;
70406;SDS011;57821;52.202;0.154;2024-02-26T08:56:06;6.85;;;1.13;;
70406;SDS011;57821;52.202;0.154;2024-02-26T08:58:33;6.97;;;1.40;;
70406;SDS011;57821;52.202;0.154;2024-02-26T09:01:00;5.60;;;0.98;;
70406;SDS011;57821;52.202;0.154;2024-02-26T09:03:27;9.02;;;1.00;;
70406;SDS011;57821;52.202;0.154;2024-02-26T09:05:54;8.30;;;1.30;;
70406;SDS011;57821;52.202;0.154;2024-02-26T09:08:23;7.10;;;1.08;;
70406;SDS011;57821;52.202;0.154;2024-02-26T09:10:50;7.72;;;1.08;;
70406;SDS011;57821;52.202;0.154;2024-02-26T09:13:17;7.25;;;1.20;;
70406;SDS011;57821;52.202;0.154;2024-02-26T09:15:45;6.22;;;0.98;;
70406;SDS011;57821;52.202;0.154;2024-02-26T09:18:12;9.98;;;1.73;;
70406;SDS011;57821;52.202;0.154;2024-02-26T09:20:39;6.00;;;1.10;;
70406;SDS011;57821;52.202;0.154;2024-02-26T09:23:06;3.63;;;0.70;;
70406;SDS011;57821;52.202;0.154;2024-02-26T09:25:33;8.77;;;1.00;;
70406;SDS011;57821;52.202;0.154;2024-02-26T09:28:00;4.25;;;0.90;;
70406;SDS011;57821;52.202;0.154;2024-02-26T09:30:27;10.60;;;1.25;;
70406;SDS011;57821;52.202;0.154;2024-02-26T09:32:54;8.13;;;1.33;;
70406;SDS011;57821;52.202;0.154;2024-02-26T09:35:20;9.40;;;1.08;;
70406;SDS011;57821;52.202;0.154;2024-02-26T09:37:47;5.22;;;1.00;;
70406;SDS011;57821;52.202;0.154;2024-02-26T09:40:16;5.45;;;1.13;;
70406;SDS011;57821;52.202;0.154;2024-02-26T09:42:44;7.53;;;1.05;;
70406;SDS011;57821;52.202;0.154;2024-02-26T09:45:17;7.55;;;1.20;;
70406;SDS011;57821;52.202;0.154;2024-02-26T09:47:45;8.30;;;1.63;;
70406;SDS011;57821;52.202;0.154;2024-02-26T09:50:14;9.02;;;1.40;;
70406;SDS011;57821;52.202;0.154;2024-02-26T09:52:44;12.88;;;2.25;;
70406;SDS011;57821;52.202;0.154;2024-02-26T09:55:14;9.50;;;2.08;;
70406;SDS011;57821;52.202;0.154;2024-02-26T09:57:46;8.27;;;1.90;;
70406;SDS011;57821;52.202;0.154;2024-02-26T10:00:18;8.52;;;2.33;;
70406;SDS011;57821;52.202;0.154;2024-02-26T10:02:47;10.02;;;2.60;;
70406;SDS011;57821;52.202;0.154;2024-02-26T10:05:18;8.00;;;2.53;;
70406;SDS011;57821;52.202;0.154;2024-02-26T10:07:45;10.03;;;1.77;;
70406;SDS011;57821;52.202;0.154;2024-02-26T10:10:15;10.55;;;2.70;;
70406;SDS011;57821;52.202;0.154;2024-02-26T10:12:44;12.63;;;2.92;;
70406;SDS011;57821;52.202;0.154;2024-02-26T10:15:11;10.48;;;3.00;;
70406;SDS011;57821;52.202;0.154;2024-02-26T10:17:37;11.43;;;2.70;;
70406;SDS011;57821;52.202;0.154;2024-02-26T10:20:39;9.13;;;2.08;;
70406;SDS011;57821;52.202;0.154;2024-02-26T10:23:02;7.97;;;1.25;;
70406;SDS011;57821;52.202;0.154;2024-02-26T10:25:31;7.93;;;2.33;;
70406;SDS011;57821;52.202;0.154;2024-02-26T10:27:59;7.47;;;1.85;;
70406;SDS011;57821;52.202;0.154;2024-02-26T10:30:30;10.25;;;1.83;;
70406;SDS011;57821;52.202;0.154;2024-02-26T10:32:57;6.20;;;1.65;;
70406;SDS011;57821;52.202;0.154;2024-02-26T10:35:24;8.90;;;1.85;;
70406;SDS011;57821;52.202;0.154;2024-02-26T10:37:52;7.43;;;1.60;;
70406;SDS011;57821;52.202;0.154;2024-02-26T10:40:20;7.88;;;1.48;;
70406;SDS011;57821;52.202;0.154;2024-02-26T10:42:47;8.15;;;1.23;;
70406;SDS011;57821;52.202;0.154;2024-02-26T10:45:14;9.20;;;1.20;;
70406;SDS011;57821;52.202;0.154;2024-02-26T10:47:41;8.75;;;1.23;;
70406;SDS011;57821;52.202;0.154;2024-02-26T10:50:09;5.95;;;1.35;;
70406;SDS011;57821;52.202;0.154;2024-02-26T10:52:36;8.88;;;1.15;;
70406;SDS011;57821;52.202;0.154;2024-02-26T10:55:04;8.07;;;1.40;;
70406;SDS011;57821;52.202;0.154;2024-02-26T11:00:03;5.97;;;1.40;;
70406;SDS011;57821;52.202;0.154;2024-02-26T11:02:35;8.55;;;1.50;;
70406;SDS011;57821;52.202;0.154;2024-02-26T11:05:02;5.90;;;1.08;;
70406;SDS011;57821;52.202;0.154;2024-02-26T11:07:33;5.97;;;1.15;;
70406;SDS011;57821;52.202;0.154;2024-02-26T11:10:02;4.20;;;0.73;;
70406;SDS011;57821;52.202;0.154;2024-02-26T11:12:31;9.82;;;2.38;;
70406;SDS011;57821;52.202;0.154;2024-02-26T11:14:59;3.88;;;1.00;;
70406;SDS011;57821;52.202;0.154;2024-02-26T11:17:28;6.43;;;1.00;;
70406;SDS011;57821;52.202;0.154;2024-02-26T11:19:59;8.73;;;1.10;;
70406;SDS011;57821;52.202;0.154;2024-02-26T11:22:26;7.63;;;1.02;;
70406;SDS011;57821;52.202;0.154;2024-02-26T11:24:53;7.28;;;1.00;;
70406;SDS011;57821;52.202;0.154;2024-02-26T11:27:24;6.57;;;0.98;;
70406;SDS011;57821;52.202;0.154;2024-02-26T11:29:57;5.13;;;0.98;;
70406;SDS011;57821;52.202;0.154;2024-02-26T11:32:27;6.85;;;1.10;;
70406;SDS011;57821;52.202;0.154;2024-02-26T11:34:56;10.35;;;1.52;;
70406;SDS011;57821;52.202;0.154;2024-02-26T11:37:24;6.90;;;0.90;;
70406;SDS011;57821;52.202;0.154;2024-02-26T11:39:52;7.40;;;1.13;;
70406;SDS011;57821;52.202;0.154;2024-02-26T11:42:22;6.05;;;0.90;;
70406;SDS011;57821;52.202;0.154;2024-02-26T11:44:51;3.30;;;0.60;;
70406;SDS011;57821;52.202;0.154;2024-02-26T11:47:19;5.45;;;1.13;;
70406;SDS011;57821;52.202;0.154;2024-02-26T11:49:47;5.45;;;1.10;;
70406;SDS011;57821;52.202;0.154;2024-02-26T11:52:15;7.85;;;1.58;;
70406;SDS011;57821;52.202;0.154;2024-02-26T11:54:56;6.80;;;1.00;;
70406;SDS011;57821;52.202;0.154;2024-02-26T11:59:57;7.43;;;0.93;;
70406;SDS011;57821;52.202;0.154;2024-02-26T12:02:44;5.43;;;0.88;;
70406;SDS011;57821;52.202;0.154;2024-02-26T12:05:15;10.80;;;1.33;;
70406;SDS011;57821;52.202;0.154;2024-02-26T12:07:44;8.13;;;1.00;;
70406;SDS011;57821;52.202;0.154;2024-02-26T12:15:37;9.40;;;1.30;;
70406;SDS011;57821;52.202;0.154;2024-02-26T12:18:06;5.30;;;0.88;;
70406;SDS011;57821;52.202;0.154;2024-02-26T12:20:37;5.93;;;0.82;;
70406;SDS011;57821;52.202;0.154;2024-02-26T12:23:04;5.72;;;0.80;;
70406;SDS011;57821;52.202;0.154;2024-02-26T12:25:31;5.78;;;0.90;;
70406;SDS011;57821;52.202;0.154;2024-02-26T12:27:59;3.75;;;0.73;;
70406;SDS011;57821;52.202;0.154;2024-02-26T12:30:26;5.97;;;0.70;;
70406;SDS011;57821;52.202;0.154;2024-02-26T12:32:59;8.68;;;0.93;;
70406;SDS011;57821;52.202;0.154;2024-02-26T12:35:27;6.60;;;0.95;;
70406;SDS011;57821;52.202;0.154;2024-02-26T12:37:55;5.85;;;0.98;;
70406;SDS011;57821;52.202;0.154;2024-02-26T12:40:22;8.07;;;1.30;;
70406;SDS011;57821;52.202;0.154;2024-02-26T12:42:48;7.00;;;0.88;;
70406;SDS011;57821;52.202;0.154;2024-02-26T12:45:15;9.07;;;1.00;;
70406;SDS011;57821;52.202;0.154;2024-02-26T12:47:43;4.13;;;0.80;;
70406;SDS011;57821;52.202;0.154;2024-02-26T12:50:12;3.92;;;0.70;;
70406;SDS011;57821;52.202;0.154;2024-02-26T12:52:40;5.22;;;0.90;;
70406;SDS011;57821;52.202;0.154;2024-02-26T12:55:10;9.10;;;1.27;;
70406;SDS011;57821;52.202;0.154;2024-02-26T12:57:40;7.65;;;0.80;;
70406;SDS011;57821;52.202;0.154;2024-02-26T13:00:11;10.35;;;1.15;;
70406;SDS011;57821;52.202;0.154;2024-02-26T13:02:41;8.45;;;1.35;;
70406;SDS011;57821;52.202;0.154;2024-02-26T13:05:11;6.13;;;0.90;;
70406;SDS011;57821;52.202;0.154;2024-02-26T13:07:43;7.72;;;0.80;;
70406;SDS011;57821;52.202;0.154;2024-02-26T13:10:10;5.72;;;1.02;;
70406;SDS011;57821;52.202;0.154;2024-02-26T13:12:47;10.63;;;1.08;;
70406;SDS011;57821;52.202;0.154;2024-02-26T13:15:21;4.55;;;0.93;;
70406;SDS011;57821;52.202;0.154;2024-02-26T13:17:49;8.00;;;1.23;;
70406;SDS011;57821;52.202;0.154;2024-02-26T13:20:26;5.47;;;0.90;;
70406;SDS011;57821;52.202;0.154;2024-02-26T13:23:05;6.35;;;0.95;;
70406;SDS011;57821;52.202;0.154;2024-02-26T13:25:33;7.55;;;1.02;;
70406;SDS011;57821;52.202;0.154;2024-02-26T13:28:08;4.57;;;0.82;;
70406;SDS011;57821;52.202;0.154;2024-02-26T13:30:36;7.70;;;1.05;;
70406;SDS011;57821;52.202;0.154;2024-02-26T13:33:07;6.43;;;0.80;;
70406;SDS011;57821;52.202;0.154;2024-02-26T13:35:38;3.95;;;0.70;;
70406;SDS011;57821;52.202;0.154;2024-02-26T13:38:06;6.10;;;0.98;;
70406;SDS011;57821;52.202;0.154;2024-02-26T13:40:32;9.25;;;1.20;;
70406;SDS011;57821;52.202;0.154;2024-02-26T13:43:00;4.40;;;1.00;;
70406;SDS011;57821;52.202;0.154;2024-02-26T13:45:27;7.43;;;0.90;;
70406;SDS011;57821;52.202;0.154;2024-02-26T13:48:09;6.25;;;0.77;;
70406;SDS011;57821;52.202;0.154;2024-02-26T13:50:38;4.47;;;0.90;;
70406;SDS011;57821;52.202;0.154;2024-02-26T13:53:05;6.65;;;1.10;;
70406;SDS011;57821;52.202;0.154;2024-02-26T13:55:32;13.57;;;1.58;;
70406;SDS011;57821;52.202;0.154;2024-02-26T13:57:59;4.22;;;1.00;;
70406;SDS011;57821;52.202;0.154;2024-02-26T14:00:29;8.55;;;1.30;;
70406;SDS011;57821;52.202;0.154;2024-02-26T14:03:01;9.32;;;1.10;;
70406;SDS011;57821;52.202;0.154;2024-02-26T14:05:28;7.82;;;1.25;;
70406;SDS011;57821;52.202;0.154;2024-02-26T14:07:56;6.95;;;1.05;;
70406;SDS011;57821;52.202;0.154;2024-02-26T14:10:23;6.25;;;1.00;;
70406;SDS011;57821;52.202;0.154;2024-02-26T14:12:50;11.70;;;1.90;;
70406;SDS011;57821;52.202;0.154;2024-02-26T14:15:17;9.38;;;1.20;;
70406;SDS011;57821;52.202;0.154;2024-02-26T14:17:44;4.95;;;0.80;;
70406;SDS011;57821;52.202;0.154;2024-02-26T14:20:12;6.70;;;1.20;;
70406;SDS011;57821;52.202;0.154;2024-02-26T14:22:39;5.88;;;1.00;;
70406;SDS011;57821;52.202;0.154;2024-02-26T14:25:06;6.68;;;0.80;;
70406;SDS011;57821;52.202;0.154;2024-02-26T14:27:35;5.35;;;1.55;;
70406;SDS011;57821;52.202;0.154;2024-02-26T14:30:02;6.82;;;1.00;;
70406;SDS011;57821;52.202;0.154;2024-02-26T14:32:29;7.80;;;1.52;;
70406;SDS011;57821;52.202;0.154;2024-02-26T14:34:57;8.40;;;1.70;;
70406;SDS011;57821;52.202;0.154;2024-02-26T14:37:24;5.25;;;1.00;;
70406;SDS011;57821;52.202;0.154;2024-02-26T14:39:51;5.85;;;1.20;;
70406;SDS011;57821;52.202;0.154;2024-02-26T14:42:19;6.40;;;1.63;;
70406;SDS011;57821;52.202;0.154;2024-02-26T14:44:45;8.52;;;1.27;;
70406;SDS011;57821;52.202;0.154;2024-02-26T14:47:14;7.60;;;1.10;;
70406;SDS011;57821;52.202;0.154;2024-02-26T14:49:41;3.65;;;0.63;;
70406;SDS011;57821;52.202;0.154;2024-02-26T14:52:08;7.35;;;0.82;;
70406;SDS011;57821;52.202;0.154;2024-02-26T14:54:34;7.75;;;0.93;;
70406;SDS011;57821;52.202;0.154;2024-02-26T14:57:05;7.50;;;1.58;;
70406;SDS011;57821;52.202;0.154;2024-02-26T14:59:33;10.23;;;2.30;;